sensor_id;sensor_type;location;lat;lon;timestamp;P1;durP1;ratioP1;P2;durP2;ratioP2
75937;SDS011;64615;32.062;34.834;2023-06-04T00:01:09;7.45;;;1.83;;
75937;SDS011;64615;32.062;34.834;2023-06-04T00:03:34;5.68;;;1.60;;
75937;SDS011;64615;32.062;34.834;2023-06-04T00:06:00;9.43;;;2.03;;
75937;SDS011;64615;32.062;34.834;2023-06-04T00:08:26;6.10;;;1.80;;
75937;SDS011;64615;32.062;34.834;2023-06-04T00:10:51;5.78;;;1.63;;
75937;SDS011;64615;32.062;34.834;2023-06-04T00:13:17;7.57;;;1.67;;
75937;SDS011;64615;32.062;34.834;2023-06-04T00:15:43;8.77;;;1.80;;
75937;SDS011;64615;32.062;34.834;2023-06-04T00:18:08;9.07;;;1.90;;
75937;SDS011;64615;32.062;34.834;2023-06-04T00:20:36;6.57;;;1.83;;
75937;SDS011;64615;32.062;34.834;2023-06-04T00:23:02;7.35;;;1.90;;
75937;SDS011;64615;32.062;34.834;2023-06-04T00:25:28;6.85;;;1.70;;
75937;SDS011;64615;32.062;34.834;2023-06-04T00:27:53;6.82;;;1.52;;
75937;SDS011;64615;32.062;34.834;2023-06-04T00:30:19;6.60;;;1.83;;
75937;SDS011;64615;32.062;34.834;2023-06-04T00:32:45;8.35;;;2.10;;
75937;SDS011;64615;32.062;34.834;2023-06-04T00:35:12;6.63;;;1.85;;
75937;SDS011;64615;32.062;34.834;2023-06-04T00:37:37;6.70;;;1.60;;
75937;SDS011;64615;32.062;34.834;2023-06-04T00:40:03;7.00;;;1.63;;
75937;SDS011;64615;32.062;34.834;2023-06-04T00:42:30;6.88;;;1.65;;
75937;SDS011;64615;32.062;34.834;2023-06-04T00:44:56;8.07;;;1.90;;
75937;SDS011;64615;32.062;34.834;2023-06-04T00:47:22;6.32;;;1.67;;
75937;SDS011;64615;32.062;34.834;2023-06-04T00:49:48;5.60;;;1.67;;
75937;SDS011;64615;32.062;34.834;2023-06-04T00:52:14;5.20;;;1.52;;
75937;SDS011;64615;32.062;34.834;2023-06-04T00:54:40;6.85;;;1.70;;
75937;SDS011;64615;32.062;34.834;2023-06-04T00:57:06;5.30;;;1.50;;
75937;SDS011;64615;32.062;34.834;2023-06-04T00:59:34;5.97;;;1.90;;
75937;SDS011;64615;32.062;34.834;2023-06-04T01:02:03;8.35;;;1.63;;
75937;SDS011;64615;32.062;34.834;2023-06-04T01:04:50;6.88;;;1.67;;
75937;SDS011;64615;32.062;34.834;2023-06-04T01:07:24;6.38;;;1.63;;
75937;SDS011;64615;32.062;34.834;2023-06-04T01:09:53;6.30;;;1.55;;
75937;SDS011;64615;32.062;34.834;2023-06-04T01:12:19;6.28;;;1.67;;
75937;SDS011;64615;32.062;34.834;2023-06-04T01:14:45;5.45;;;1.35;;
75937;SDS011;64615;32.062;34.834;2023-06-04T01:17:13;6.85;;;1.60;;
75937;SDS011;64615;32.062;34.834;2023-06-04T01:25:26;7.10;;;2.00;;
75937;SDS011;64615;32.062;34.834;2023-06-04T01:27:57;6.15;;;1.45;;
75937;SDS011;64615;32.062;34.834;2023-06-04T01:30:28;7.18;;;1.75;;
75937;SDS011;64615;32.062;34.834;2023-06-04T01:32:56;7.05;;;2.22;;
75937;SDS011;64615;32.062;34.834;2023-06-04T01:35:23;6.07;;;1.70;;
75937;SDS011;64615;32.062;34.834;2023-06-04T01:37:51;6.63;;;1.80;;
75937;SDS011;64615;32.062;34.834;2023-06-04T01:40:17;5.32;;;1.67;;
75937;SDS011;64615;32.062;34.834;2023-06-04T01:42:42;8.35;;;1.83;;
75937;SDS011;64615;32.062;34.834;2023-06-04T01:45:08;5.43;;;1.40;;
75937;SDS011;64615;32.062;34.834;2023-06-04T01:47:35;8.55;;;1.65;;
75937;SDS011;64615;32.062;34.834;2023-06-04T01:50:09;5.18;;;1.70;;
75937;SDS011;64615;32.062;34.834;2023-06-04T01:52:38;5.80;;;1.73;;
75937;SDS011;64615;32.062;34.834;2023-06-04T01:55:08;5.57;;;1.50;;
75937;SDS011;64615;32.062;34.834;2023-06-04T01:57:40;5.68;;;2.05;;
75937;SDS011;64615;32.062;34.834;2023-06-04T02:00:06;4.03;;;1.30;;
75937;SDS011;64615;32.062;34.834;2023-06-04T02:02:34;6.13;;;1.70;;
75937;SDS011;64615;32.062;34.834;2023-06-04T02:05:04;7.28;;;1.65;;
75937;SDS011;64615;32.062;34.834;2023-06-04T02:07:35;7.38;;;1.70;;
75937;SDS011;64615;32.062;34.834;2023-06-04T02:10:06;6.10;;;1.90;;
75937;SDS011;64615;32.062;34.834;2023-06-04T02:12:35;8.77;;;1.83;;
75937;SDS011;64615;32.062;34.834;2023-06-04T02:15:02;7.35;;;1.63;;
75937;SDS011;64615;32.062;34.834;2023-06-04T02:17:28;3.92;;;1.50;;
75937;SDS011;64615;32.062;34.834;2023-06-04T02:19:57;4.38;;;1.80;;
75937;SDS011;64615;32.062;34.834;2023-06-04T02:22:23;4.55;;;1.33;;
75937;SDS011;64615;32.062;34.834;2023-06-04T02:24:50;3.65;;;1.40;;
75937;SDS011;64615;32.062;34.834;2023-06-04T02:27:15;5.47;;;1.42;;
75937;SDS011;64615;32.062;34.834;2023-06-04T02:29:41;2.70;;;1.20;;
75937;SDS011;64615;32.062;34.834;2023-06-04T02:32:07;4.22;;;1.20;;
75937;SDS011;64615;32.062;34.834;2023-06-04T02:34:33;3.28;;;1.02;;
75937;SDS011;64615;32.062;34.834;2023-06-04T02:37:00;3.30;;;1.15;;
75937;SDS011;64615;32.062;34.834;2023-06-04T02:39:26;4.28;;;1.58;;
75937;SDS011;64615;32.062;34.834;2023-06-04T02:41:52;3.15;;;1.20;;
75937;SDS011;64615;32.062;34.834;2023-06-04T02:44:17;2.25;;;1.10;;
75937;SDS011;64615;32.062;34.834;2023-06-04T02:46:43;3.63;;;1.15;;
75937;SDS011;64615;32.062;34.834;2023-06-04T02:49:09;3.70;;;1.10;;
75937;SDS011;64615;32.062;34.834;2023-06-04T02:51:41;2.90;;;0.82;;
75937;SDS011;64615;32.062;34.834;2023-06-04T02:54:08;2.55;;;1.10;;
75937;SDS011;64615;32.062;34.834;2023-06-04T02:56:34;3.05;;;1.02;;
75937;SDS011;64615;32.062;34.834;2023-06-04T02:59:01;2.60;;;1.00;;
75937;SDS011;64615;32.062;34.834;2023-06-04T03:01:27;2.30;;;0.90;;
75937;SDS011;64615;32.062;34.834;2023-06-04T03:03:53;3.75;;;1.08;;
75937;SDS011;64615;32.062;34.834;2023-06-04T03:06:20;4.10;;;1.05;;
75937;SDS011;64615;32.062;34.834;2023-06-04T03:08:50;2.13;;;0.90;;
75937;SDS011;64615;32.062;34.834;2023-06-04T03:11:19;2.90;;;0.88;;
75937;SDS011;64615;32.062;34.834;2023-06-04T03:13:46;3.17;;;1.00;;
75937;SDS011;64615;32.062;34.834;2023-06-04T03:16:12;3.70;;;1.10;;
75937;SDS011;64615;32.062;34.834;2023-06-04T03:18:41;6.38;;;1.00;;
75937;SDS011;64615;32.062;34.834;2023-06-04T03:21:08;3.67;;;1.25;;
75937;SDS011;64615;32.062;34.834;2023-06-04T03:23:36;6.32;;;1.30;;
75937;SDS011;64615;32.062;34.834;2023-06-04T03:26:02;5.25;;;1.20;;
75937;SDS011;64615;32.062;34.834;2023-06-04T03:28:29;4.15;;;1.02;;
75937;SDS011;64615;32.062;34.834;2023-06-04T03:30:55;4.72;;;1.10;;
75937;SDS011;64615;32.062;34.834;2023-06-04T03:33:21;2.17;;;0.88;;
75937;SDS011;64615;32.062;34.834;2023-06-04T03:35:46;5.60;;;1.17;;
75937;SDS011;64615;32.062;34.834;2023-06-04T03:38:14;4.82;;;1.27;;
75937;SDS011;64615;32.062;34.834;2023-06-04T03:40:42;4.13;;;1.02;;
75937;SDS011;64615;32.062;34.834;2023-06-04T03:43:08;6.53;;;0.98;;
75937;SDS011;64615;32.062;34.834;2023-06-04T03:45:34;4.20;;;1.05;;
75937;SDS011;64615;32.062;34.834;2023-06-04T03:48:00;5.72;;;1.30;;
75937;SDS011;64615;32.062;34.834;2023-06-04T03:50:26;3.65;;;1.08;;
75937;SDS011;64615;32.062;34.834;2023-06-04T03:52:52;3.92;;;1.30;;
75937;SDS011;64615;32.062;34.834;2023-06-04T03:55:17;4.60;;;1.05;;
75937;SDS011;64615;32.062;34.834;2023-06-04T03:57:43;9.13;;;1.42;;
75937;SDS011;64615;32.062;34.834;2023-06-04T04:00:10;8.68;;;1.95;;
75937;SDS011;64615;32.062;34.834;2023-06-04T04:02:38;10.38;;;1.90;;
75937;SDS011;64615;32.062;34.834;2023-06-04T04:05:07;13.98;;;2.40;;
75937;SDS011;64615;32.062;34.834;2023-06-04T04:07:34;8.20;;;2.17;;
75937;SDS011;64615;32.062;34.834;2023-06-04T04:10:00;13.20;;;2.50;;
75937;SDS011;64615;32.062;34.834;2023-06-04T04:12:25;13.45;;;2.50;;
75937;SDS011;64615;32.062;34.834;2023-06-04T04:14:51;8.35;;;2.38;;
75937;SDS011;64615;32.062;34.834;2023-06-04T04:17:17;13.95;;;2.25;;
75937;SDS011;64615;32.062;34.834;2023-06-04T04:19:43;10.50;;;2.45;;
75937;SDS011;64615;32.062;34.834;2023-06-04T04:22:10;9.35;;;2.08;;
75937;SDS011;64615;32.062;34.834;2023-06-04T04:24:36;12.27;;;2.13;;
75937;SDS011;64615;32.062;34.834;2023-06-04T04:27:03;10.05;;;2.38;;
75937;SDS011;64615;32.062;34.834;2023-06-04T04:29:30;10.10;;;1.95;;
75937;SDS011;64615;32.062;34.834;2023-06-04T04:31:58;15.73;;;2.45;;
75937;SDS011;64615;32.062;34.834;2023-06-04T04:34:26;18.52;;;3.28;;
75937;SDS011;64615;32.062;34.834;2023-06-04T04:36:52;23.98;;;3.03;;
75937;SDS011;64615;32.062;34.834;2023-06-04T04:39:22;12.55;;;2.53;;
75937;SDS011;64615;32.062;34.834;2023-06-04T04:41:51;15.63;;;2.97;;
75937;SDS011;64615;32.062;34.834;2023-06-04T04:44:17;15.73;;;3.20;;
75937;SDS011;64615;32.062;34.834;2023-06-04T04:46:43;13.00;;;2.47;;
75937;SDS011;64615;32.062;34.834;2023-06-04T04:49:09;14.93;;;2.80;;
75937;SDS011;64615;32.062;34.834;2023-06-04T04:51:35;11.57;;;2.50;;
75937;SDS011;64615;32.062;34.834;2023-06-04T04:54:00;11.35;;;2.53;;
75937;SDS011;64615;32.062;34.834;2023-06-04T04:56:26;21.63;;;2.53;;
75937;SDS011;64615;32.062;34.834;2023-06-04T04:58:53;17.13;;;2.45;;
75937;SDS011;64615;32.062;34.834;2023-06-04T05:01:19;13.52;;;2.63;;
75937;SDS011;64615;32.062;34.834;2023-06-04T05:03:45;18.05;;;3.15;;
75937;SDS011;64615;32.062;34.834;2023-06-04T05:06:11;22.90;;;3.50;;
75937;SDS011;64615;32.062;34.834;2023-06-04T05:08:37;13.98;;;2.55;;
75937;SDS011;64615;32.062;34.834;2023-06-04T05:11:02;21.25;;;2.90;;
75937;SDS011;64615;32.062;34.834;2023-06-04T05:13:28;17.23;;;3.17;;
75937;SDS011;64615;32.062;34.834;2023-06-04T05:15:54;13.70;;;3.22;;
75937;SDS011;64615;32.062;34.834;2023-06-04T05:18:20;27.52;;;3.38;;
75937;SDS011;64615;32.062;34.834;2023-06-04T05:20:46;14.52;;;2.45;;
75937;SDS011;64615;32.062;34.834;2023-06-04T05:23:12;17.25;;;2.72;;
75937;SDS011;64615;32.062;34.834;2023-06-04T05:25:38;26.80;;;3.08;;
75937;SDS011;64615;32.062;34.834;2023-06-04T05:28:04;18.73;;;2.95;;
75937;SDS011;64615;32.062;34.834;2023-06-04T05:30:31;18.73;;;2.72;;
75937;SDS011;64615;32.062;34.834;2023-06-04T05:32:59;22.10;;;3.40;;
75937;SDS011;64615;32.062;34.834;2023-06-04T05:35:25;16.20;;;2.55;;
75937;SDS011;64615;32.062;34.834;2023-06-04T05:37:50;20.55;;;3.17;;
75937;SDS011;64615;32.062;34.834;2023-06-04T05:40:22;18.33;;;3.33;;
75937;SDS011;64615;32.062;34.834;2023-06-04T05:42:54;11.23;;;2.33;;
75937;SDS011;64615;32.062;34.834;2023-06-04T05:45:20;24.08;;;3.42;;
75937;SDS011;64615;32.062;34.834;2023-06-04T05:47:45;16.25;;;2.75;;
75937;SDS011;64615;32.062;34.834;2023-06-04T05:50:11;13.93;;;2.60;;
75937;SDS011;64615;32.062;34.834;2023-06-04T05:52:37;23.45;;;2.90;;
75937;SDS011;64615;32.062;34.834;2023-06-04T05:55:04;15.75;;;2.63;;
75937;SDS011;64615;32.062;34.834;2023-06-04T05:57:32;18.10;;;2.78;;
75937;SDS011;64615;32.062;34.834;2023-06-04T05:59:58;12.85;;;2.40;;
75937;SDS011;64615;32.062;34.834;2023-06-04T06:02:23;12.95;;;2.50;;
75937;SDS011;64615;32.062;34.834;2023-06-04T06:04:49;14.48;;;2.97;;
75937;SDS011;64615;32.062;34.834;2023-06-04T06:07:15;12.98;;;2.50;;
75937;SDS011;64615;32.062;34.834;2023-06-04T06:09:41;14.32;;;2.83;;
75937;SDS011;64615;32.062;34.834;2023-06-04T06:12:06;19.35;;;2.70;;
75937;SDS011;64615;32.062;34.834;2023-06-04T06:14:32;13.07;;;2.67;;
75937;SDS011;64615;32.062;34.834;2023-06-04T06:16:58;14.13;;;2.58;;
75937;SDS011;64615;32.062;34.834;2023-06-04T06:19:23;10.82;;;2.40;;
75937;SDS011;64615;32.062;34.834;2023-06-04T06:21:49;16.77;;;3.08;;
75937;SDS011;64615;32.062;34.834;2023-06-04T06:24:15;14.18;;;3.03;;
75937;SDS011;64615;32.062;34.834;2023-06-04T06:26:41;12.80;;;2.15;;
75937;SDS011;64615;32.062;34.834;2023-06-04T06:29:07;13.93;;;2.65;;
75937;SDS011;64615;32.062;34.834;2023-06-04T06:31:33;11.40;;;2.47;;
75937;SDS011;64615;32.062;34.834;2023-06-04T06:33:58;10.25;;;2.60;;
75937;SDS011;64615;32.062;34.834;2023-06-04T06:36:24;17.00;;;2.70;;
75937;SDS011;64615;32.062;34.834;2023-06-04T06:38:51;12.48;;;2.28;;
75937;SDS011;64615;32.062;34.834;2023-06-04T06:41:24;11.85;;;2.45;;
75937;SDS011;64615;32.062;34.834;2023-06-04T06:43:50;9.00;;;2.20;;
75937;SDS011;64615;32.062;34.834;2023-06-04T06:46:16;11.18;;;2.33;;
75937;SDS011;64615;32.062;34.834;2023-06-04T06:48:42;14.90;;;3.15;;
75937;SDS011;64615;32.062;34.834;2023-06-04T06:53:35;9.30;;;2.33;;
75937;SDS011;64615;32.062;34.834;2023-06-04T06:56:01;13.43;;;2.80;;
75937;SDS011;64615;32.062;34.834;2023-06-04T06:58:27;14.95;;;3.10;;
75937;SDS011;64615;32.062;34.834;2023-06-04T07:00:52;10.98;;;2.58;;
75937;SDS011;64615;32.062;34.834;2023-06-04T07:03:20;14.63;;;2.63;;
75937;SDS011;64615;32.062;34.834;2023-06-04T07:05:45;12.35;;;2.78;;
75937;SDS011;64615;32.062;34.834;2023-06-04T07:08:11;14.77;;;2.50;;
75937;SDS011;64615;32.062;34.834;2023-06-04T07:10:36;15.52;;;2.67;;
75937;SDS011;64615;32.062;34.834;2023-06-04T07:13:02;9.27;;;2.45;;
75937;SDS011;64615;32.062;34.834;2023-06-04T07:15:28;11.57;;;2.70;;
75937;SDS011;64615;32.062;34.834;2023-06-04T07:17:53;13.93;;;2.75;;
75937;SDS011;64615;32.062;34.834;2023-06-04T07:20:19;9.88;;;2.47;;
75937;SDS011;64615;32.062;34.834;2023-06-04T07:22:44;16.50;;;2.50;;
75937;SDS011;64615;32.062;34.834;2023-06-04T07:25:10;12.80;;;2.63;;
75937;SDS011;64615;32.062;34.834;2023-06-04T07:27:36;13.30;;;2.83;;
75937;SDS011;64615;32.062;34.834;2023-06-04T07:30:02;13.15;;;2.72;;
75937;SDS011;64615;32.062;34.834;2023-06-04T07:32:28;13.68;;;2.50;;
75937;SDS011;64615;32.062;34.834;2023-06-04T07:34:53;11.85;;;2.67;;
75937;SDS011;64615;32.062;34.834;2023-06-04T07:37:19;8.30;;;2.40;;
75937;SDS011;64615;32.062;34.834;2023-06-04T07:39:44;15.00;;;3.08;;
75937;SDS011;64615;32.062;34.834;2023-06-04T07:42:10;10.65;;;2.40;;
75937;SDS011;64615;32.062;34.834;2023-06-04T07:44:36;12.18;;;2.42;;
75937;SDS011;64615;32.062;34.834;2023-06-04T07:47:03;13.10;;;2.65;;
75937;SDS011;64615;32.062;34.834;2023-06-04T07:49:29;11.77;;;2.38;;
75937;SDS011;64615;32.062;34.834;2023-06-04T07:51:54;15.30;;;2.72;;
75937;SDS011;64615;32.062;34.834;2023-06-04T07:54:20;10.00;;;2.58;;
75937;SDS011;64615;32.062;34.834;2023-06-04T07:56:46;15.48;;;2.63;;
75937;SDS011;64615;32.062;34.834;2023-06-04T07:59:11;9.85;;;2.45;;
75937;SDS011;64615;32.062;34.834;2023-06-04T08:01:37;11.55;;;2.80;;
75937;SDS011;64615;32.062;34.834;2023-06-04T08:04:02;8.85;;;2.45;;
75937;SDS011;64615;32.062;34.834;2023-06-04T08:06:28;13.55;;;2.47;;
75937;SDS011;64615;32.062;34.834;2023-06-04T08:08:54;11.88;;;2.72;;
75937;SDS011;64615;32.062;34.834;2023-06-04T08:11:20;12.48;;;2.53;;
75937;SDS011;64615;32.062;34.834;2023-06-04T08:13:48;15.13;;;2.63;;
75937;SDS011;64615;32.062;34.834;2023-06-04T08:16:14;13.82;;;2.95;;
75937;SDS011;64615;32.062;34.834;2023-06-04T08:18:40;15.18;;;3.40;;
75937;SDS011;64615;32.062;34.834;2023-06-04T08:21:08;12.90;;;2.70;;
75937;SDS011;64615;32.062;34.834;2023-06-04T08:23:35;9.48;;;2.35;;
75937;SDS011;64615;32.062;34.834;2023-06-04T08:26:01;13.73;;;2.80;;
75937;SDS011;64615;32.062;34.834;2023-06-04T08:28:27;12.80;;;2.80;;
75937;SDS011;64615;32.062;34.834;2023-06-04T08:30:52;12.05;;;3.08;;
75937;SDS011;64615;32.062;34.834;2023-06-04T08:33:18;17.25;;;3.15;;
75937;SDS011;64615;32.062;34.834;2023-06-04T08:35:44;15.68;;;3.35;;
75937;SDS011;64615;32.062;34.834;2023-06-04T08:38:10;14.95;;;2.83;;
75937;SDS011;64615;32.062;34.834;2023-06-04T08:40:35;12.88;;;2.60;;
75937;SDS011;64615;32.062;34.834;2023-06-04T08:43:08;9.40;;;2.45;;
75937;SDS011;64615;32.062;34.834;2023-06-04T08:45:38;11.50;;;2.72;;
75937;SDS011;64615;32.062;34.834;2023-06-04T08:48:05;18.15;;;2.72;;
75937;SDS011;64615;32.062;34.834;2023-06-04T08:50:39;10.20;;;2.35;;
75937;SDS011;64615;32.062;34.834;2023-06-04T08:53:07;14.05;;;2.80;;
75937;SDS011;64615;32.062;34.834;2023-06-04T08:55:36;12.32;;;2.42;;
75937;SDS011;64615;32.062;34.834;2023-06-04T08:58:03;14.52;;;2.92;;
75937;SDS011;64615;32.062;34.834;2023-06-04T09:00:33;11.23;;;2.65;;
75937;SDS011;64615;32.062;34.834;2023-06-04T09:02:58;13.25;;;3.13;;
75937;SDS011;64615;32.062;34.834;2023-06-04T09:05:29;13.43;;;3.10;;
75937;SDS011;64615;32.062;34.834;2023-06-04T09:07:55;7.75;;;2.40;;
75937;SDS011;64615;32.062;34.834;2023-06-04T09:10:26;20.15;;;2.60;;
75937;SDS011;64615;32.062;34.834;2023-06-04T09:12:54;10.52;;;2.53;;
75937;SDS011;64615;32.062;34.834;2023-06-04T09:15:22;11.02;;;2.50;;
75937;SDS011;64615;32.062;34.834;2023-06-04T09:17:48;15.02;;;2.90;;
75937;SDS011;64615;32.062;34.834;2023-06-04T09:20:20;15.27;;;2.60;;
75937;SDS011;64615;32.062;34.834;2023-06-04T09:22:47;15.13;;;2.85;;
75937;SDS011;64615;32.062;34.834;2023-06-04T09:25:20;12.52;;;2.97;;
75937;SDS011;64615;32.062;34.834;2023-06-04T09:27:52;11.75;;;2.42;;
75937;SDS011;64615;32.062;34.834;2023-06-04T09:30:20;11.07;;;2.42;;
75937;SDS011;64615;32.062;34.834;2023-06-04T09:32:47;12.45;;;2.67;;
75937;SDS011;64615;32.062;34.834;2023-06-04T09:37:40;9.48;;;2.50;;
75937;SDS011;64615;32.062;34.834;2023-06-04T09:40:07;12.65;;;2.50;;
75937;SDS011;64615;32.062;34.834;2023-06-04T09:42:46;13.43;;;2.90;;
75937;SDS011;64615;32.062;34.834;2023-06-04T09:45:28;10.48;;;2.97;;
75937;SDS011;64615;32.062;34.834;2023-06-04T09:47:57;13.10;;;2.90;;
75937;SDS011;64615;32.062;34.834;2023-06-04T09:50:26;10.57;;;2.40;;
75937;SDS011;64615;32.062;34.834;2023-06-04T09:52:53;9.07;;;2.67;;
75937;SDS011;64615;32.062;34.834;2023-06-04T09:55:19;15.35;;;2.72;;
75937;SDS011;64615;32.062;34.834;2023-06-04T09:57:47;11.20;;;3.08;;
75937;SDS011;64615;32.062;34.834;2023-06-04T10:00:17;9.80;;;2.75;;
75937;SDS011;64615;32.062;34.834;2023-06-04T10:02:44;12.38;;;2.67;;
75937;SDS011;64615;32.062;34.834;2023-06-04T10:05:11;20.95;;;3.00;;
75937;SDS011;64615;32.062;34.834;2023-06-04T10:07:44;17.85;;;3.15;;
75937;SDS011;64615;32.062;34.834;2023-06-04T10:10:14;10.10;;;2.38;;
75937;SDS011;64615;32.062;34.834;2023-06-04T10:12:41;12.45;;;2.58;;
75937;SDS011;64615;32.062;34.834;2023-06-04T10:15:12;7.65;;;2.10;;
75937;SDS011;64615;32.062;34.834;2023-06-04T10:17:38;8.40;;;2.40;;
75937;SDS011;64615;32.062;34.834;2023-06-04T10:20:06;6.30;;;2.03;;
75937;SDS011;64615;32.062;34.834;2023-06-04T10:22:33;6.68;;;1.90;;
75937;SDS011;64615;32.062;34.834;2023-06-04T10:25:00;6.70;;;1.88;;
75937;SDS011;64615;32.062;34.834;2023-06-04T10:27:27;5.25;;;1.98;;
75937;SDS011;64615;32.062;34.834;2023-06-04T10:29:55;6.28;;;1.70;;
75937;SDS011;64615;32.062;34.834;2023-06-04T10:32:21;5.90;;;1.95;;
75937;SDS011;64615;32.062;34.834;2023-06-04T10:34:47;4.40;;;1.63;;
75937;SDS011;64615;32.062;34.834;2023-06-04T10:37:22;5.43;;;1.58;;
75937;SDS011;64615;32.062;34.834;2023-06-04T10:39:52;4.40;;;1.50;;
75937;SDS011;64615;32.062;34.834;2023-06-04T10:42:19;3.38;;;1.52;;
75937;SDS011;64615;32.062;34.834;2023-06-04T10:44:50;3.63;;;1.40;;
75937;SDS011;64615;32.062;34.834;2023-06-04T10:47:21;4.18;;;1.70;;
75937;SDS011;64615;32.062;34.834;2023-06-04T10:49:50;4.40;;;1.58;;
75937;SDS011;64615;32.062;34.834;2023-06-04T10:52:17;3.40;;;1.30;;
75937;SDS011;64615;32.062;34.834;2023-06-04T10:54:44;4.70;;;1.63;;
75937;SDS011;64615;32.062;34.834;2023-06-04T10:57:15;3.33;;;1.30;;
75937;SDS011;64615;32.062;34.834;2023-06-04T10:59:53;5.50;;;1.52;;
75937;SDS011;64615;32.062;34.834;2023-06-04T11:02:19;3.85;;;1.50;;
75937;SDS011;64615;32.062;34.834;2023-06-04T11:04:45;4.15;;;1.52;;
75937;SDS011;64615;32.062;34.834;2023-06-04T11:07:11;3.15;;;1.30;;
75937;SDS011;64615;32.062;34.834;2023-06-04T11:09:37;2.65;;;1.17;;
75937;SDS011;64615;32.062;34.834;2023-06-04T11:12:15;3.60;;;1.33;;
75937;SDS011;64615;32.062;34.834;2023-06-04T11:14:52;3.83;;;1.30;;
75937;SDS011;64615;32.062;34.834;2023-06-04T11:17:27;2.70;;;1.25;;
75937;SDS011;64615;32.062;34.834;2023-06-04T11:19:55;3.10;;;1.35;;
75937;SDS011;64615;32.062;34.834;2023-06-04T11:22:21;3.67;;;1.50;;
75937;SDS011;64615;32.062;34.834;2023-06-04T11:24:47;3.45;;;1.33;;
75937;SDS011;64615;32.062;34.834;2023-06-04T11:27:13;3.72;;;1.30;;
75937;SDS011;64615;32.062;34.834;2023-06-04T11:29:39;4.03;;;1.40;;
75937;SDS011;64615;32.062;34.834;2023-06-04T11:32:05;3.53;;;1.50;;
75937;SDS011;64615;32.062;34.834;2023-06-04T11:34:31;3.80;;;1.40;;
75937;SDS011;64615;32.062;34.834;2023-06-04T11:37:07;3.83;;;1.48;;
75937;SDS011;64615;32.062;34.834;2023-06-04T11:39:34;3.53;;;1.65;;
75937;SDS011;64615;32.062;34.834;2023-06-04T11:42:03;2.97;;;1.13;;
75937;SDS011;64615;32.062;34.834;2023-06-04T11:44:30;3.40;;;1.38;;
75937;SDS011;64615;32.062;34.834;2023-06-04T11:46:56;3.58;;;1.30;;
75937;SDS011;64615;32.062;34.834;2023-06-04T11:49:22;4.38;;;1.40;;
75937;SDS011;64615;32.062;34.834;2023-06-04T11:51:48;3.47;;;1.50;;
75937;SDS011;64615;32.062;34.834;2023-06-04T11:54:18;4.93;;;1.70;;
75937;SDS011;64615;32.062;34.834;2023-06-04T11:56:46;4.35;;;1.77;;
75937;SDS011;64615;32.062;34.834;2023-06-04T11:59:15;4.78;;;1.60;;
75937;SDS011;64615;32.062;34.834;2023-06-04T12:01:42;6.75;;;1.95;;
75937;SDS011;64615;32.062;34.834;2023-06-04T12:04:12;6.90;;;1.80;;
75937;SDS011;64615;32.062;34.834;2023-06-04T12:06:50;11.02;;;2.53;;
75937;SDS011;64615;32.062;34.834;2023-06-04T12:09:21;10.60;;;2.30;;
75937;SDS011;64615;32.062;34.834;2023-06-04T12:11:48;12.90;;;2.50;;
75937;SDS011;64615;32.062;34.834;2023-06-04T12:14:17;8.55;;;2.50;;
75937;SDS011;64615;32.062;34.834;2023-06-04T12:16:54;11.93;;;2.25;;
75937;SDS011;64615;32.062;34.834;2023-06-04T12:19:20;13.43;;;2.63;;
75937;SDS011;64615;32.062;34.834;2023-06-04T12:21:45;10.90;;;2.50;;
75937;SDS011;64615;32.062;34.834;2023-06-04T12:24:12;13.50;;;2.33;;
75937;SDS011;64615;32.062;34.834;2023-06-04T12:26:39;14.65;;;2.42;;
75937;SDS011;64615;32.062;34.834;2023-06-04T12:31:41;11.57;;;2.72;;
75937;SDS011;64615;32.062;34.834;2023-06-04T12:34:09;10.43;;;2.60;;
75937;SDS011;64615;32.062;34.834;2023-06-04T12:36:36;8.38;;;2.60;;
75937;SDS011;64615;32.062;34.834;2023-06-04T12:39:04;12.40;;;2.40;;
75937;SDS011;64615;32.062;34.834;2023-06-04T12:41:31;11.40;;;2.95;;
75937;SDS011;64615;32.062;34.834;2023-06-04T12:43:58;10.00;;;2.38;;
75937;SDS011;64615;32.062;34.834;2023-06-04T12:46:25;13.63;;;2.60;;
75937;SDS011;64615;32.062;34.834;2023-06-04T12:48:51;11.27;;;2.75;;
75937;SDS011;64615;32.062;34.834;2023-06-04T12:51:18;11.57;;;2.67;;
75937;SDS011;64615;32.062;34.834;2023-06-04T12:53:44;16.52;;;2.92;;
75937;SDS011;64615;32.062;34.834;2023-06-04T12:56:10;14.90;;;2.60;;
75937;SDS011;64615;32.062;34.834;2023-06-04T12:58:36;8.63;;;2.53;;
75937;SDS011;64615;32.062;34.834;2023-06-04T13:01:02;9.52;;;2.67;;
75937;SDS011;64615;32.062;34.834;2023-06-04T13:03:29;18.50;;;3.10;;
75937;SDS011;64615;32.062;34.834;2023-06-04T13:05:56;13.10;;;2.97;;
75937;SDS011;64615;32.062;34.834;2023-06-04T13:08:22;18.45;;;2.83;;
75937;SDS011;64615;32.062;34.834;2023-06-04T13:10:49;12.10;;;2.92;;
75937;SDS011;64615;32.062;34.834;2023-06-04T13:13:16;14.27;;;3.13;;
75937;SDS011;64615;32.062;34.834;2023-06-04T13:15:43;13.15;;;3.15;;
75937;SDS011;64615;32.062;34.834;2023-06-04T13:18:09;11.27;;;2.50;;
75937;SDS011;64615;32.062;34.834;2023-06-04T13:20:39;11.52;;;3.15;;
75937;SDS011;64615;32.062;34.834;2023-06-04T13:23:05;14.50;;;3.17;;
75937;SDS011;64615;32.062;34.834;2023-06-04T13:25:32;17.58;;;3.00;;
75937;SDS011;64615;32.062;34.834;2023-06-04T13:28:04;13.68;;;3.15;;
75937;SDS011;64615;32.062;34.834;2023-06-04T13:30:30;12.77;;;2.90;;
75937;SDS011;64615;32.062;34.834;2023-06-04T13:32:56;10.90;;;2.95;;
75937;SDS011;64615;32.062;34.834;2023-06-04T13:35:25;9.60;;;2.63;;
75937;SDS011;64615;32.062;34.834;2023-06-04T13:37:51;16.33;;;3.10;;
75937;SDS011;64615;32.062;34.834;2023-06-04T13:40:17;11.52;;;2.90;;
75937;SDS011;64615;32.062;34.834;2023-06-04T13:42:42;12.63;;;3.35;;
75937;SDS011;64615;32.062;34.834;2023-06-04T13:45:09;11.35;;;2.80;;
75937;SDS011;64615;32.062;34.834;2023-06-04T13:47:34;11.80;;;2.95;;
75937;SDS011;64615;32.062;34.834;2023-06-04T13:50:00;11.65;;;3.00;;
75937;SDS011;64615;32.062;34.834;2023-06-04T13:52:26;11.63;;;3.22;;
75937;SDS011;64615;32.062;34.834;2023-06-04T13:54:55;11.18;;;3.30;;
75937;SDS011;64615;32.062;34.834;2023-06-04T13:57:21;7.50;;;2.75;;
75937;SDS011;64615;32.062;34.834;2023-06-04T13:59:48;11.98;;;3.15;;
75937;SDS011;64615;32.062;34.834;2023-06-04T14:02:14;8.55;;;3.17;;
75937;SDS011;64615;32.062;34.834;2023-06-04T14:04:40;9.73;;;3.00;;
75937;SDS011;64615;32.062;34.834;2023-06-04T14:07:05;11.93;;;3.38;;
75937;SDS011;64615;32.062;34.834;2023-06-04T14:09:31;9.75;;;3.00;;
75937;SDS011;64615;32.062;34.834;2023-06-04T14:11:57;8.30;;;3.03;;
75937;SDS011;64615;32.062;34.834;2023-06-04T14:14:23;10.00;;;3.28;;
75937;SDS011;64615;32.062;34.834;2023-06-04T14:16:49;11.55;;;3.33;;
75937;SDS011;64615;32.062;34.834;2023-06-04T14:19:15;12.77;;;3.40;;
75937;SDS011;64615;32.062;34.834;2023-06-04T14:21:41;12.13;;;3.47;;
75937;SDS011;64615;32.062;34.834;2023-06-04T14:24:08;10.57;;;3.30;;
75937;SDS011;64615;32.062;34.834;2023-06-04T14:26:35;10.80;;;3.00;;
75937;SDS011;64615;32.062;34.834;2023-06-04T14:29:00;12.23;;;3.40;;
75937;SDS011;64615;32.062;34.834;2023-06-04T14:31:26;14.63;;;3.03;;
75937;SDS011;64615;32.062;34.834;2023-06-04T14:33:52;12.73;;;3.33;;
75937;SDS011;64615;32.062;34.834;2023-06-04T14:36:18;11.48;;;3.38;;
75937;SDS011;64615;32.062;34.834;2023-06-04T14:38:43;13.27;;;3.40;;
75937;SDS011;64615;32.062;34.834;2023-06-04T14:41:10;12.13;;;3.30;;